Welby, Colorado
Current Conditions -  °F | °C
As of 7:49 PM on Saturday 22 Nov 2014 (Local Time) from KBJC Reporting Station
Broken Clouds Broken Clouds  
Wind Chill: 52°   Ceiling: 20000
Heat Index: 52°   Visibility: 30mi
Dew Point: 25°   Wind: 20mph
Humidity: 35%   Direction: 290°WNW
Pressure: 29.6"   Gusts: 26mph
Location:  39.8532°N, 104.959°W
Report Text: KBJC 230249Z 29017G23KT 30SM FEW080 BKN200 11/M04 A2960
Loading
Personal Weather Stations






























Interactive Weather Map New forecast layout! Learn more

10-Day Weather Forecast

Advertisements
Track Severe Weather on mobile